Time;durP1;ratioP1;P1;durP2;ratioP2;P2;SDS_P1;SDS_P2;PMS_P1;PMS_P2;Temp;Humidity;BMP_temperature;BMP_pressure;BME280_temperature;BME280_humidity;BME280_pressure;Samples;Min_cycle;Max_cycle;Signal;HPM_P1;HPM_P2
2023/10/02 00:00:41;;;;;;;22.02;8.93;;;;;;;;;;5002080;28;20069;-67
2023/10/02 00:03:10;;;;;;;21.60;9.23;;;;;;;;;;4994146;28;20061;-68
2023/10/02 00:05:51;;;;;;;22.60;9.55;;;;;;;;;;4976888;28;20061;-68
2023/10/02 00:08:36;;;;;;;25.58;9.85;;;;;;;;;;4999319;28;20046;-67
2023/10/02 00:11:35;;;;;;;21.67;9.55;;;;;;;;;;4974630;28;20457;-67
2023/10/02 00:16:39;;;;;;;22.42;9.40;;;;;;;;;;4994483;28;20046;-68
2023/10/02 00:19:18;;;;;;;23.95;9.23;;;;;;;;;;4995751;28;20043;-68
2023/10/02 00:21:45;;;;;;;21.00;7.95;;;;;;;;;;4992221;28;20058;-68
2023/10/02 00:24:13;;;;;;;23.73;8.40;;;;;;;;;;4998304;28;20067;-68
2023/10/02 00:26:40;;;;;;;22.63;9.13;;;;;;;;;;4992604;28;20632;-67
2023/10/02 00:29:09;;;;;;;24.10;9.20;;;;;;;;;;4999299;28;20053;-68
2023/10/02 00:31:38;;;;;;;19.38;8.55;;;;;;;;;;4994000;28;20082;-69
2023/10/02 00:34:05;;;;;;;24.50;9.18;;;;;;;;;;4992178;28;20050;-69
2023/10/02 00:36:36;;;;;;;23.15;9.65;;;;;;;;;;4971644;28;20853;-68
2023/10/02 00:39:25;;;;;;;22.77;8.65;;;;;;;;;;4992018;28;20049;-68
2023/10/02 00:47:35;;;;;;;21.05;9.30;;;;;;;;;;4997124;28;20046;-67
2023/10/02 00:50:08;;;;;;;23.13;9.00;;;;;;;;;;4994570;28;20086;-68
2023/10/02 00:52:40;;;;;;;23.70;8.93;;;;;;;;;;4968106;28;20046;-67
2023/10/02 00:55:09;;;;;;;21.52;9.25;;;;;;;;;;4993139;28;20064;-68
2023/10/02 00:57:37;;;;;;;20.73;8.50;;;;;;;;;;4993558;28;20042;-68
2023/10/02 01:00:06;;;;;;;21.88;8.68;;;;;;;;;;4992781;28;20129;-68
2023/10/02 01:02:35;;;;;;;19.50;8.55;;;;;;;;;;4965387;28;20055;-68
2023/10/02 01:05:04;;;;;;;20.90;8.07;;;;;;;;;;4991810;28;20077;-68
2023/10/02 01:07:34;;;;;;;22.80;9.63;;;;;;;;;;4996010;28;20115;-68
2023/10/02 01:10:08;;;;;;;23.08;9.40;;;;;;;;;;4990955;28;20101;-68
2023/10/02 01:12:43;;;;;;;23.08;8.73;;;;;;;;;;4991951;28;20137;-69
2023/10/02 01:15:12;;;;;;;25.40;9.15;;;;;;;;;;4997806;28;20138;-68
2023/10/02 01:17:41;;;;;;;21.17;8.80;;;;;;;;;;4995893;28;20054;-68
2023/10/02 01:20:19;;;;;;;18.95;8.23;;;;;;;;;;4991425;28;20050;-69
2023/10/02 01:22:47;;;;;;;21.95;8.23;;;;;;;;;;4969966;28;20061;-68
2023/10/02 01:25:16;;;;;;;25.85;9.35;;;;;;;;;;4999597;28;20049;-69
2023/10/02 01:27:47;;;;;;;21.20;9.15;;;;;;;;;;4976091;28;20049;-68
2023/10/02 01:30:15;;;;;;;20.80;9.18;;;;;;;;;;4987537;28;20042;-68
2023/10/02 01:33:06;;;;;;;23.20;9.18;;;;;;;;;;4989689;28;20053;-68
2023/10/02 01:35:37;;;;;;;20.67;8.73;;;;;;;;;;4990775;28;20046;-68
2023/10/02 01:38:12;;;;;;;24.40;9.18;;;;;;;;;;4992852;28;20042;-68
2023/10/02 01:40:42;;;;;;;22.17;9.55;;;;;;;;;;4995544;28;20050;-68
2023/10/02 01:43:16;;;;;;;29.00;10.10;;;;;;;;;;4997664;28;20059;-69
2023/10/02 01:45:43;;;;;;;25.88;10.02;;;;;;;;;;4990594;28;20058;-69
2023/10/02 01:48:14;;;;;;;25.70;10.20;;;;;;;;;;4993481;28;20042;-68
2023/10/02 01:50:43;;;;;;;26.63;9.90;;;;;;;;;;4992111;28;20072;-68
2023/10/02 01:53:29;;;;;;;25.80;10.20;;;;;;;;;;4992886;28;20057;-70
2023/10/02 01:56:11;;;;;;;21.65;9.25;;;;;;;;;;4990537;28;20038;-68
2023/10/02 01:58:39;;;;;;;23.10;9.60;;;;;;;;;;4993405;28;20046;-68
2023/10/02 02:01:09;;;;;;;24.98;9.05;;;;;;;;;;5000970;28;20448;-70
2023/10/02 02:03:37;;;;;;;23.30;9.40;;;;;;;;;;4981073;28;20132;-70
2023/10/02 02:06:08;;;;;;;28.52;10.00;;;;;;;;;;4991155;28;20057;-68
2023/10/02 02:08:36;;;;;;;25.05;9.80;;;;;;;;;;4967504;28;20073;-69
2023/10/02 02:11:16;;;;;;;23.77;9.52;;;;;;;;;;4988918;28;20049;-68
2023/10/02 02:13:47;;;;;;;24.67;10.25;;;;;;;;;;4986217;28;20046;-68
2023/10/02 02:16:16;;;;;;;27.00;10.60;;;;;;;;;;4992003;28;20547;-68
2023/10/02 02:18:45;;;;;;;22.90;9.90;;;;;;;;;;4986946;28;20097;-68
2023/10/02 02:21:18;;;;;;;22.50;9.50;;;;;;;;;;4969285;28;20054;-68
2023/10/02 02:23:46;;;;;;;25.17;10.35;;;;;;;;;;4989607;28;20054;-68
2023/10/02 02:26:21;;;;;;;25.50;11.27;;;;;;;;;;4972002;28;20062;-69
2023/10/02 02:28:52;;;;;;;32.33;12.18;;;;;;;;;;5000270;28;20046;-68
2023/10/02 02:31:32;;;;;;;28.35;12.13;;;;;;;;;;4986713;28;20060;-68
2023/10/02 02:34:01;;;;;;;34.45;12.90;;;;;;;;;;4992109;28;20082;-69
2023/10/02 02:36:29;;;;;;;29.33;11.93;;;;;;;;;;4996492;28;20054;-68
2023/10/02 02:39:16;;;;;;;29.73;12.27;;;;;;;;;;4974288;28;20054;-69
2023/10/02 02:41:49;;;;;;;32.17;12.40;;;;;;;;;;4994134;28;20100;-68
2023/10/02 02:47:07;;;;;;;30.70;13.10;;;;;;;;;;4993831;28;20056;-68
2023/10/02 02:49:48;;;;;;;33.65;13.10;;;;;;;;;;4988854;28;20490;-68
2023/10/02 02:52:15;;;;;;;40.58;14.45;;;;;;;;;;4976336;28;20055;-68
2023/10/02 02:54:47;;;;;;;38.35;14.30;;;;;;;;;;4996874;28;20094;-68
2023/10/02 02:57:18;;;;;;;34.20;15.50;;;;;;;;;;4971428;28;20101;-69
2023/10/02 02:59:46;;;;;;;39.92;14.30;;;;;;;;;;4985413;28;20089;-68
2023/10/02 03:02:21;;;;;;;35.92;15.13;;;;;;;;;;4978608;28;20041;-68
2023/10/02 03:04:51;;;;;;;34.95;14.40;;;;;;;;;;4972484;28;20049;-69
2023/10/02 03:07:29;;;;;;;36.40;15.25;;;;;;;;;;4995794;28;20050;-68
2023/10/02 03:09:59;;;;;;;37.00;15.00;;;;;;;;;;4985553;28;20066;-68
2023/10/02 03:12:28;;;;;;;40.10;15.55;;;;;;;;;;4995648;28;20054;-69
2023/10/02 03:14:58;;;;;;;37.40;14.98;;;;;;;;;;4993156;28;20062;-69
2023/10/02 03:17:32;;;;;;;38.88;16.70;;;;;;;;;;4994412;28;20081;-69
2023/10/02 03:20:01;;;;;;;39.72;16.35;;;;;;;;;;4999788;28;20089;-69
2023/10/02 03:22:33;;;;;;;36.60;14.52;;;;;;;;;;4997234;28;20074;-68
2023/10/02 03:25:25;;;;;;;36.45;15.73;;;;;;;;;;4998481;28;20038;-68
2023/10/02 03:27:54;;;;;;;33.97;15.27;;;;;;;;;;4988646;28;20134;-69
2023/10/02 03:30:38;;;;;;;35.47;15.25;;;;;;;;;;4994141;28;20100;-68
2023/10/02 03:33:17;;;;;;;37.03;15.65;;;;;;;;;;4996223;28;21329;-70
2023/10/02 03:35:56;;;;;;;40.92;15.38;;;;;;;;;;4973700;28;20129;-68
2023/10/02 03:38:23;;;;;;;39.90;15.63;;;;;;;;;;4990988;28;20393;-69
2023/10/02 03:40:54;;;;;;;42.97;15.98;;;;;;;;;;4997108;28;20560;-69
2023/10/02 03:43:34;;;;;;;40.08;14.70;;;;;;;;;;4974869;28;20108;-68
2023/10/02 03:46:04;;;;;;;37.08;15.93;;;;;;;;;;4998923;28;20081;-68
2023/10/02 03:48:31;;;;;;;34.25;15.00;;;;;;;;;;4995331;28;20050;-69
2023/10/02 03:50:59;;;;;;;41.13;16.83;;;;;;;;;;4995467;28;20082;-69
2023/10/02 03:53:29;;;;;;;37.35;15.73;;;;;;;;;;4991361;28;20081;-68
2023/10/02 03:56:36;;;;;;;34.53;16.05;;;;;;;;;;4975738;28;20058;-69
2023/10/02 03:58:50;;;;;;;39.13;15.90;;;;;;;;;;4988604;28;20163;-68
2023/10/02 04:01:18;;;;;;;42.28;15.73;;;;;;;;;;4993625;28;20081;-68
2023/10/02 04:04:09;;;;;;;39.67;16.40;;;;;;;;;;4995784;28;21568;-68
2023/10/02 04:06:36;;;;;;;38.58;16.10;;;;;;;;;;4991496;28;20057;-68
2023/10/02 04:09:11;;;;;;;39.45;16.08;;;;;;;;;;4992374;28;20113;-70
2023/10/02 04:11:39;;;;;;;39.38;15.38;;;;;;;;;;4975351;28;20046;-69
2023/10/02 04:14:17;;;;;;;41.75;16.00;;;;;;;;;;4994670;28;20062;-69
2023/10/02 04:16:46;;;;;;;38.25;16.00;;;;;;;;;;4995824;28;20501;-69
2023/10/02 04:19:15;;;;;;;37.38;15.82;;;;;;;;;;4975137;28;20094;-69
2023/10/02 04:21:43;;;;;;;39.42;16.33;;;;;;;;;;4991918;28;20050;-68
2023/10/02 04:24:10;;;;;;;40.55;16.10;;;;;;;;;;4991981;28;20390;-68
2023/10/02 04:26:36;;;;;;;40.22;16.02;;;;;;;;;;4993955;28;20559;-69
2023/10/02 04:29:15;;;;;;;42.40;16.92;;;;;;;;;;4996227;28;20138;-68
2023/10/02 04:31:44;;;;;;;43.92;16.55;;;;;;;;;;4978345;28;20050;-69
2023/10/02 04:34:24;;;;;;;40.33;16.50;;;;;;;;;;4997664;28;20137;-69
2023/10/02 04:36:51;;;;;;;42.47;17.95;;;;;;;;;;4987430;28;20053;-69
2023/10/02 04:42:15;;;;;;;37.42;16.80;;;;;;;;;;4996952;28;20054;-69
2023/10/02 04:44:44;;;;;;;39.20;17.83;;;;;;;;;;4997745;28;20440;-68
2023/10/02 04:47:17;;;;;;;46.67;18.20;;;;;;;;;;4994389;28;20085;-70
2023/10/02 04:52:53;;;;;;;37.83;18.15;;;;;;;;;;4989694;28;20180;-69
2023/10/02 04:55:23;;;;;;;44.67;17.98;;;;;;;;;;4989932;28;20042;-70
2023/10/02 04:57:54;;;;;;;43.33;18.85;;;;;;;;;;4995412;28;20062;-69
2023/10/02 05:00:32;;;;;;;50.92;19.38;;;;;;;;;;4993507;28;20083;-69
2023/10/02 05:03:09;;;;;;;48.08;19.85;;;;;;;;;;4968968;28;20054;-69
2023/10/02 05:05:42;;;;;;;44.60;19.80;;;;;;;;;;4989241;28;20053;-68
2023/10/02 05:08:18;;;;;;;55.53;20.38;;;;;;;;;;4996286;28;20202;-68
2023/10/02 05:10:47;;;;;;;52.92;20.25;;;;;;;;;;4990130;28;20046;-69
2023/10/02 05:13:44;;;;;;;44.70;19.33;;;;;;;;;;4994906;28;20533;-70
2023/10/02 05:16:07;;;;;;;52.03;19.85;;;;;;;;;;4992181;28;20058;-70
2023/10/02 05:18:35;;;;;;;50.28;19.98;;;;;;;;;;4991883;28;20046;-70
2023/10/02 05:21:02;;;;;;;51.67;20.17;;;;;;;;;;4990236;28;20053;-70
2023/10/02 05:23:30;;;;;;;50.60;19.70;;;;;;;;;;4991354;28;20042;-70
2023/10/02 05:26:02;;;;;;;45.92;18.85;;;;;;;;;;4993565;28;20137;-70
2023/10/02 05:28:42;;;;;;;47.30;19.42;;;;;;;;;;4972832;28;20050;-70
2023/10/02 05:31:11;;;;;;;52.42;19.95;;;;;;;;;;4992396;28;20436;-70
2023/10/02 05:33:39;;;;;;;45.45;17.95;;;;;;;;;;4968751;28;20145;-70
2023/10/02 05:36:09;;;;;;;47.45;19.15;;;;;;;;;;4992567;28;20057;-70
2023/10/02 05:38:37;;;;;;;49.03;20.05;;;;;;;;;;4993522;28;20042;-70
2023/10/02 05:41:12;;;;;;;48.80;19.88;;;;;;;;;;4991243;28;20054;-70
2023/10/02 05:43:55;;;;;;;48.45;19.60;;;;;;;;;;4989673;28;20046;-70
2023/10/02 05:46:23;;;;;;;51.75;19.27;;;;;;;;;;4992076;28;20047;-70
2023/10/02 05:49:00;;;;;;;47.20;19.30;;;;;;;;;;4998140;28;20505;-71
2023/10/02 05:51:45;;;;;;;47.10;19.25;;;;;;;;;;4993074;28;20050;-71
2023/10/02 05:54:13;;;;;;;53.40;19.63;;;;;;;;;;4996448;28;20061;-70
2023/10/02 05:56:41;;;;;;;49.15;19.27;;;;;;;;;;4999761;28;20069;-70
2023/10/02 05:59:08;;;;;;;51.67;19.75;;;;;;;;;;4975234;28;20066;-70
2023/10/02 06:01:36;;;;;;;46.97;20.50;;;;;;;;;;4990966;28;20445;-71
2023/10/02 06:04:05;;;;;;;44.65;18.55;;;;;;;;;;4977200;28;20116;-71
2023/10/02 06:06:36;;;;;;;50.28;20.08;;;;;;;;;;4995359;28;20077;-70
2023/10/02 06:09:12;;;;;;;52.60;20.23;;;;;;;;;;4981324;28;20100;-70
2023/10/02 06:11:59;;;;;;;53.75;20.73;;;;;;;;;;4986525;28;20042;-71
2023/10/02 06:14:27;;;;;;;50.13;20.52;;;;;;;;;;4988964;28;20452;-70
2023/10/02 06:16:54;;;;;;;51.92;20.67;;;;;;;;;;4992556;28;20103;-70
2023/10/02 06:19:23;;;;;;;54.60;20.50;;;;;;;;;;4997832;28;20049;-70
2023/10/02 06:22:04;;;;;;;52.50;19.92;;;;;;;;;;4974540;28;20149;-71
2023/10/02 06:24:32;;;;;;;55.70;19.45;;;;;;;;;;4986140;28;20727;-70
2023/10/02 06:27:04;;;;;;;49.60;20.30;;;;;;;;;;4996380;28;20098;-69
2023/10/02 06:29:35;;;;;;;48.40;19.80;;;;;;;;;;4989522;28;20050;-70
2023/10/02 06:32:05;;;;;;;49.20;19.42;;;;;;;;;;4973307;28;20058;-69
2023/10/02 06:34:37;;;;;;;49.50;19.80;;;;;;;;;;4980169;28;20058;-70
2023/10/02 06:37:08;;;;;;;54.88;20.05;;;;;;;;;;4975904;28;20058;-70
2023/10/02 06:39:36;;;;;;;49.75;19.42;;;;;;;;;;4988707;28;20282;-71
2023/10/02 06:42:05;;;;;;;48.17;19.27;;;;;;;;;;4996903;28;20046;-70
2023/10/02 06:44:38;;;;;;;55.60;19.83;;;;;;;;;;4973310;28;20092;-70
2023/10/02 06:47:11;;;;;;;48.33;19.75;;;;;;;;;;4995788;28;20060;-70
2023/10/02 06:49:40;;;;;;;48.85;18.77;;;;;;;;;;4994672;28;20104;-70
2023/10/02 06:52:15;;;;;;;47.13;19.95;;;;;;;;;;4972902;28;20057;-70
2023/10/02 06:54:43;;;;;;;47.60;19.02;;;;;;;;;;4998353;28;20077;-70
2023/10/02 06:57:15;;;;;;;43.22;17.92;;;;;;;;;;4976456;28;20053;-70
2023/10/02 06:59:51;;;;;;;44.22;18.63;;;;;;;;;;4993844;28;20462;-70
2023/10/02 07:02:19;;;;;;;44.05;17.95;;;;;;;;;;4995540;28;20062;-71
2023/10/02 07:04:48;;;;;;;43.92;18.90;;;;;;;;;;4994527;28;20133;-72
2023/10/02 07:07:23;;;;;;;50.08;18.40;;;;;;;;;;4996917;28;20056;-70
2023/10/02 07:09:51;;;;;;;40.25;17.67;;;;;;;;;;4982024;28;20050;-70
2023/10/02 07:12:20;;;;;;;45.40;18.85;;;;;;;;;;4994054;28;20054;-70
2023/10/02 07:14:48;;;;;;;45.40;18.98;;;;;;;;;;4997381;28;20053;-70
2023/10/02 07:17:23;;;;;;;47.40;18.40;;;;;;;;;;4999820;28;20062;-70
2023/10/02 07:19:50;;;;;;;;;;;;;;;;;;4976503;28;20133;-71
2023/10/02 07:22:25;;;;;;;40.50;18.42;;;;;;;;;;4997073;28;19921;-70
2023/10/02 07:24:54;;;;;;;45.00;17.92;;;;;;;;;;4993126;28;20058;-71
2023/10/02 07:27:25;;;;;;;45.60;17.77;;;;;;;;;;4984643;28;20449;-70
2023/10/02 07:29:52;;;;;;;50.10;19.05;;;;;;;;;;4979528;28;20054;-70
2023/10/02 07:32:19;;;;;;;42.10;17.30;;;;;;;;;;4998727;28;20046;-70
2023/10/02 07:34:47;;;;;;;43.30;17.45;;;;;;;;;;4993155;28;20073;-70
2023/10/02 07:37:16;;;;;;;43.35;17.55;;;;;;;;;;4990607;28;20133;-70
2023/10/02 07:39:45;;;;;;;42.38;17.90;;;;;;;;;;4988818;28;20050;-70
2023/10/02 07:42:16;;;;;;;49.38;18.58;;;;;;;;;;4988909;28;20444;-70
2023/10/02 07:44:45;;;;;;;43.47;17.70;;;;;;;;;;4980312;28;20133;-70
2023/10/02 07:47:18;;;;;;;46.97;18.85;;;;;;;;;;4994801;28;20046;-71
2023/10/02 07:49:48;;;;;;;46.35;17.40;;;;;;;;;;4971715;28;20490;-70
2023/10/02 07:52:26;;;;;;;44.30;17.73;;;;;;;;;;4989660;28;20046;-70
2023/10/02 07:54:59;;;;;;;46.38;17.63;;;;;;;;;;4994276;28;20473;-71
2023/10/02 07:57:30;;;;;;;51.53;18.08;;;;;;;;;;4992849;28;20069;-71
2023/10/02 07:59:58;;;;;;;50.13;18.10;;;;;;;;;;4982208;28;20082;-70
2023/10/02 08:02:33;;;;;;;46.70;16.67;;;;;;;;;;4984776;28;20041;-71
2023/10/02 08:05:02;;;;;;;48.92;17.58;;;;;;;;;;4988955;28;20077;-70
2023/10/02 08:07:30;;;;;;;41.40;16.77;;;;;;;;;;4987913;28;20046;-70
2023/10/02 08:10:00;;;;;;;46.45;16.52;;;;;;;;;;4993976;28;20053;-70
2023/10/02 08:12:34;;;;;;;38.92;16.02;;;;;;;;;;4969824;28;20042;-70
2023/10/02 08:15:26;;;;;;;42.83;16.55;;;;;;;;;;4989132;28;20409;-70
2023/10/02 08:18:14;;;;;;;47.83;15.48;;;;;;;;;;4982359;28;20085;-71
2023/10/02 08:20:41;;;;;;;45.83;16.92;;;;;;;;;;4985142;28;20517;-70
2023/10/02 08:23:21;;;;;;;41.75;15.90;;;;;;;;;;4971314;28;20057;-70
2023/10/02 08:26:00;;;;;;;41.05;15.18;;;;;;;;;;4989360;28;20051;-70
2023/10/02 08:28:29;;;;;;;47.15;14.82;;;;;;;;;;4981362;28;20108;-71
2023/10/02 08:31:01;;;;;;;39.45;15.15;;;;;;;;;;4988057;28;20050;-70
2023/10/02 08:33:30;;;;;;;40.60;15.07;;;;;;;;;;4980254;28;20074;-70
2023/10/02 08:35:57;;;;;;;39.33;14.82;;;;;;;;;;4988136;28;20474;-71
2023/10/02 08:38:26;;;;;;;38.15;13.45;;;;;;;;;;4981046;28;20049;-71
2023/10/02 08:40:58;;;;;;;40.80;13.35;;;;;;;;;;4974551;28;20046;-70
2023/10/02 08:43:26;;;;;;;35.50;14.18;;;;;;;;;;4974877;28;20082;-71
2023/10/02 08:45:53;;;;;;;39.10;13.25;;;;;;;;;;4996035;28;20060;-70
2023/10/02 08:48:22;;;;;;;34.28;13.15;;;;;;;;;;4992441;28;20046;-71
2023/10/02 08:50:49;;;;;;;36.10;13.60;;;;;;;;;;4995721;28;20050;-71
2023/10/02 08:53:22;;;;;;;34.45;13.68;;;;;;;;;;5000097;28;20046;-70
2023/10/02 08:55:55;;;;;;;35.17;13.07;;;;;;;;;;4992258;28;20050;-71
2023/10/02 08:58:27;;;;;;;33.47;13.02;;;;;;;;;;4978988;28;20054;-70
2023/10/02 09:03:42;;;;;;;29.38;12.18;;;;;;;;;;4981339;28;20689;-72
2023/10/02 09:06:31;;;;;;;32.15;13.48;;;;;;;;;;4991835;28;20087;-71
2023/10/02 09:09:16;;;;;;;35.00;12.85;;;;;;;;;;4991855;28;20132;-70
2023/10/02 09:11:44;;;;;;;33.58;12.77;;;;;;;;;;4973287;28;20054;-71
2023/10/02 09:14:24;;;;;;;35.45;12.77;;;;;;;;;;5001670;28;20064;-70
2023/10/02 09:17:12;;;;;;;31.52;12.45;;;;;;;;;;4989754;28;20391;-70
2023/10/02 09:19:41;;;;;;;31.17;12.35;;;;;;;;;;4977577;28;20108;-70
2023/10/02 09:22:16;;;;;;;30.42;13.20;;;;;;;;;;4996968;28;20058;-70
2023/10/02 09:24:55;;;;;;;33.30;12.55;;;;;;;;;;4989656;28;20051;-71
2023/10/02 09:27:27;;;;;;;32.83;12.63;;;;;;;;;;4994143;28;20490;-70
2023/10/02 09:32:49;;;;;;;29.20;11.93;;;;;;;;;;4989746;28;20042;-71
2023/10/02 09:35:29;;;;;;;32.35;12.20;;;;;;;;;;4993517;28;20490;-70
2023/10/02 09:37:58;;;;;;;28.42;11.90;;;;;;;;;;4975624;28;20062;-70
2023/10/02 09:40:29;;;;;;;34.30;12.30;;;;;;;;;;4991163;28;20053;-72
2023/10/02 09:43:03;;;;;;;35.92;13.57;;;;;;;;;;4993227;28;20057;-71
2023/10/02 09:45:37;;;;;;;28.75;12.20;;;;;;;;;;4975515;28;20054;-71
2023/10/02 09:48:46;;;;;;;26.52;11.15;;;;;;;;;;4993766;28;20046;-70
2023/10/02 09:50:54;;;;;;;25.58;12.13;;;;;;;;;;4990666;28;20050;-72
2023/10/02 09:53:25;;;;;;;24.13;10.57;;;;;;;;;;4996179;28;20382;-72
2023/10/02 09:55:57;;;;;;;26.33;11.02;;;;;;;;;;4977913;28;20530;-71
2023/10/02 09:58:37;;;;;;;25.60;10.07;;;;;;;;;;4973060;28;20141;-71
2023/10/02 10:01:37;;;;;;;22.95;10.45;;;;;;;;;;4989016;28;20058;-71
2023/10/02 10:04:31;;;;;;;26.00;9.73;;;;;;;;;;4964741;28;20054;-70
2023/10/02 10:07:09;;;;;;;26.25;8.45;;;;;;;;;;4987641;28;20473;-71
2023/10/02 10:09:50;;;;;;;20.40;9.00;;;;;;;;;;4978521;28;20054;-71
2023/10/02 10:12:31;;;;;;;19.83;8.85;;;;;;;;;;4999592;28;20047;-71
2023/10/02 10:15:23;;;;;;;18.75;8.25;;;;;;;;;;4988548;28;20062;-71
2023/10/02 10:17:56;;;;;;;23.20;9.15;;;;;;;;;;4974651;28;20050;-73
2023/10/02 10:20:26;;;;;;;19.80;8.70;;;;;;;;;;4983394;28;20054;-72
2023/10/02 10:22:56;;;;;;;22.05;8.32;;;;;;;;;;4972388;28;20058;-71
2023/10/02 10:26:07;;;;;;;21.67;8.77;;;;;;;;;;4980544;28;20047;-71
2023/10/02 10:28:33;;;;;;;20.75;8.60;;;;;;;;;;4923986;29;20056;-71
2023/10/02 10:31:08;;;;;;;18.30;8.50;;;;;;;;;;4917347;29;20496;-71
2023/10/02 10:33:36;;;;;;;21.02;8.45;;;;;;;;;;4943574;28;20046;-71
2023/10/02 10:36:13;;;;;;;21.15;8.32;;;;;;;;;;4992546;28;20042;-72
2023/10/02 10:38:42;;;;;;;20.63;8.15;;;;;;;;;;4992411;28;20054;-72
2023/10/02 10:41:14;;;;;;;16.30;7.80;;;;;;;;;;4993664;28;20048;-70
2023/10/02 10:43:55;;;;;;;25.88;8.43;;;;;;;;;;4995586;28;20050;-71
2023/10/02 10:46:27;;;;;;;20.17;7.80;;;;;;;;;;4975288;28;20049;-72
2023/10/02 10:48:59;;;;;;;21.38;8.05;;;;;;;;;;4989724;28;20050;-71
2023/10/02 10:51:33;;;;;;;21.15;8.10;;;;;;;;;;4980808;28;20073;-72
2023/10/02 10:54:13;;;;;;;20.60;8.50;;;;;;;;;;4999067;28;20484;-71
2023/10/02 10:56:44;;;;;;;24.27;7.30;;;;;;;;;;4992071;28;20606;-71
2023/10/02 10:59:12;;;;;;;17.58;7.63;;;;;;;;;;4994571;28;20528;-71
2023/10/02 11:01:40;;;;;;;15.93;7.50;;;;;;;;;;4998537;28;20074;-71
2023/10/02 11:04:07;;;;;;;15.70;6.95;;;;;;;;;;4979564;28;20058;-71
2023/10/02 11:06:44;;;;;;;14.70;6.68;;;;;;;;;;4994293;28;20513;-71
2023/10/02 11:09:16;;;;;;;20.13;7.47;;;;;;;;;;4997516;28;20132;-71
2023/10/02 11:11:49;;;;;;;18.60;7.22;;;;;;;;;;4976206;28;20096;-71
2023/10/02 11:14:21;;;;;;;15.13;6.07;;;;;;;;;;4975426;28;20062;-70
2023/10/02 11:16:52;;;;;;;11.00;5.38;;;;;;;;;;4993397;28;20061;-71
2023/10/02 11:19:34;;;;;;;11.80;5.82;;;;;;;;;;4995644;28;20069;-71
2023/10/02 11:22:03;;;;;;;14.30;6.03;;;;;;;;;;4992363;28;20448;-71
2023/10/02 11:24:33;;;;;;;17.15;6.55;;;;;;;;;;4972124;28;20051;-71
2023/10/02 11:27:07;;;;;;;11.68;6.30;;;;;;;;;;4970009;28;20078;-72
2023/10/02 11:29:40;;;;;;;13.90;6.43;;;;;;;;;;4970797;28;20100;-72
2023/10/02 11:32:21;;;;;;;12.43;5.97;;;;;;;;;;4991955;28;20100;-71
2023/10/02 11:34:49;;;;;;;12.57;5.88;;;;;;;;;;4991407;28;20061;-72
2023/10/02 11:37:18;;;;;;;13.57;5.60;;;;;;;;;;4996858;28;20129;-71
2023/10/02 11:39:50;;;;;;;15.63;6.03;;;;;;;;;;4990069;28;20054;-71
2023/10/02 11:42:19;;;;;;;17.10;6.20;;;;;;;;;;4996392;28;20508;-72
2023/10/02 11:44:46;;;;;;;15.07;6.50;;;;;;;;;;4991137;28;20405;-72
2023/10/02 11:47:14;;;;;;;16.73;6.65;;;;;;;;;;4985719;28;20481;-72
2023/10/02 11:49:42;;;;;;;17.60;7.18;;;;;;;;;;4989597;28;20050;-71
2023/10/02 11:52:09;;;;;;;13.13;5.35;;;;;;;;;;4998429;28;20085;-73
2023/10/02 11:54:39;;;;;;;14.98;6.38;;;;;;;;;;4991175;28;20057;-72
2023/10/02 11:57:08;;;;;;;11.65;5.40;;;;;;;;;;4990597;28;20061;-71
2023/10/02 11:59:36;;;;;;;15.48;6.50;;;;;;;;;;4994650;28;20118;-73
2023/10/02 12:02:04;;;;;;;16.88;6.70;;;;;;;;;;5003820;28;20064;-71
2023/10/02 12:04:31;;;;;;;15.50;6.97;;;;;;;;;;4998409;28;20049;-70
2023/10/02 12:06:59;;;;;;;14.93;5.90;;;;;;;;;;4997410;28;20394;-71
2023/10/02 12:09:27;;;;;;;19.73;7.10;;;;;;;;;;4971046;28;20062;-71
2023/10/02 12:11:57;;;;;;;15.63;7.35;;;;;;;;;;4998362;28;20046;-71
2023/10/02 12:14:25;;;;;;;16.92;6.95;;;;;;;;;;4995345;28;20050;-71
2023/10/02 12:16:54;;;;;;;15.27;6.82;;;;;;;;;;4999537;28;20781;-71
2023/10/02 12:19:24;;;;;;;15.60;6.75;;;;;;;;;;4981458;28;20042;-71
2023/10/02 12:21:52;;;;;;;15.88;7.78;;;;;;;;;;4991134;28;20042;-71
2023/10/02 12:24:21;;;;;;;16.30;6.80;;;;;;;;;;4998578;28;20059;-71
2023/10/02 12:26:49;;;;;;;16.17;6.72;;;;;;;;;;4995612;28;20046;-71
2023/10/02 12:29:19;;;;;;;17.20;7.32;;;;;;;;;;4974623;28;20101;-71
2023/10/02 12:31:46;;;;;;;14.98;6.75;;;;;;;;;;4975080;28;20053;-71
2023/10/02 12:34:14;;;;;;;18.48;7.55;;;;;;;;;;4992654;28;20050;-72
2023/10/02 12:36:41;;;;;;;15.82;7.13;;;;;;;;;;4990686;28;20062;-71
2023/10/02 12:39:12;;;;;;;17.73;7.00;;;;;;;;;;4999540;28;20081;-71
2023/10/02 12:41:41;;;;;;;17.13;6.55;;;;;;;;;;4978313;28;20046;-72
2023/10/02 12:44:09;;;;;;;14.27;6.53;;;;;;;;;;4998847;28;20081;-73
2023/10/02 12:46:43;;;;;;;17.17;7.13;;;;;;;;;;4999342;28;20108;-72
2023/10/02 12:49:11;;;;;;;20.65;7.88;;;;;;;;;;4994649;28;20057;-71
2023/10/02 12:51:39;;;;;;;20.63;7.43;;;;;;;;;;4998560;28;20053;-72
2023/10/02 12:54:07;;;;;;;14.50;6.63;;;;;;;;;;4976206;28;20081;-71
2023/10/02 12:56:36;;;;;;;13.38;6.68;;;;;;;;;;4994963;28;20078;-71
2023/10/02 12:59:04;;;;;;;14.02;7.05;;;;;;;;;;4996777;28;20054;-71
2023/10/02 13:01:31;;;;;;;16.13;7.35;;;;;;;;;;4994743;28;20042;-71
2023/10/02 13:04:00;;;;;;;17.20;8.02;;;;;;;;;;4996380;28;20050;-71
2023/10/02 13:06:29;;;;;;;21.30;7.35;;;;;;;;;;4975787;28;20058;-72
2023/10/02 13:09:03;;;;;;;17.85;6.90;;;;;;;;;;4999312;28;20054;-71
2023/10/02 13:11:30;;;;;;;22.17;7.22;;;;;;;;;;4985216;28;20086;-71
2023/10/02 13:13:58;;;;;;;16.48;8.25;;;;;;;;;;5000175;28;20049;-72
2023/10/02 13:16:25;;;;;;;16.50;7.82;;;;;;;;;;4972711;28;20129;-72
2023/10/02 13:18:55;;;;;;;18.75;8.20;;;;;;;;;;4986275;28;20054;-71
2023/10/02 13:21:24;;;;;;;20.45;8.07;;;;;;;;;;4993388;28;20046;-71
2023/10/02 13:23:52;;;;;;;22.20;7.95;;;;;;;;;;4994274;28;20054;-72
2023/10/02 13:26:19;;;;;;;16.38;7.43;;;;;;;;;;4994272;28;20057;-71
2023/10/02 13:28:51;;;;;;;16.00;7.80;;;;;;;;;;4972688;28;20054;-72
2023/10/02 13:31:19;;;;;;;17.80;7.85;;;;;;;;;;4991746;28;20050;-71
2023/10/02 13:33:51;;;;;;;15.93;7.05;;;;;;;;;;4990395;28;20050;-71
2023/10/02 13:36:22;;;;;;;19.25;8.23;;;;;;;;;;4973222;28;20397;-71
2023/10/02 13:38:51;;;;;;;16.20;7.68;;;;;;;;;;4995383;28;20066;-71
2023/10/02 13:41:18;;;;;;;20.30;8.48;;;;;;;;;;4993153;28;20069;-71
2023/10/02 13:43:48;;;;;;;20.42;8.18;;;;;;;;;;5000757;28;20076;-71
2023/10/02 13:46:16;;;;;;;18.55;7.90;;;;;;;;;;4974532;28;20054;-71
2023/10/02 13:48:43;;;;;;;15.60;7.70;;;;;;;;;;4989568;28;20060;-71
2023/10/02 13:51:10;;;;;;;20.25;8.07;;;;;;;;;;4978169;28;20060;-71
2023/10/02 13:53:38;;;;;;;17.92;7.78;;;;;;;;;;4977841;28;20058;-71
2023/10/02 13:56:09;;;;;;;19.25;7.85;;;;;;;;;;4973935;28;20493;-71
2023/10/02 13:58:37;;;;;;;18.33;8.55;;;;;;;;;;4990818;28;20046;-71
2023/10/02 14:01:05;;;;;;;17.33;7.22;;;;;;;;;;4991574;28;20054;-72
2023/10/02 14:03:32;;;;;;;17.38;8.38;;;;;;;;;;4990240;28;20100;-71
2023/10/02 14:06:00;;;;;;;19.02;7.85;;;;;;;;;;4973660;28;20101;-72
2023/10/02 14:08:28;;;;;;;17.92;8.07;;;;;;;;;;4990059;28;20050;-72
2023/10/02 14:10:55;;;;;;;17.98;8.55;;;;;;;;;;5002523;28;20060;-71
2023/10/02 14:13:24;;;;;;;15.55;7.38;;;;;;;;;;4988038;28;20493;-71
2023/10/02 14:15:53;;;;;;;20.67;7.50;;;;;;;;;;4990894;28;20054;-71
2023/10/02 14:18:23;;;;;;;14.95;7.13;;;;;;;;;;4977122;28;20085;-72
2023/10/02 14:20:58;;;;;;;18.60;7.72;;;;;;;;;;4993341;28;20050;-71
2023/10/02 14:23:26;;;;;;;16.90;6.50;;;;;;;;;;4993509;28;20532;-71
2023/10/02 14:25:53;;;;;;;13.50;7.22;;;;;;;;;;4977362;28;20149;-71
2023/10/02 14:28:23;;;;;;;19.83;7.70;;;;;;;;;;4990870;28;20050;-71
2023/10/02 14:30:52;;;;;;;15.70;7.47;;;;;;;;;;4992748;28;20061;-71
2023/10/02 14:33:19;;;;;;;20.60;6.95;;;;;;;;;;4990194;28;20046;-71
2023/10/02 14:35:47;;;;;;;16.42;7.97;;;;;;;;;;4991687;28;20552;-71
2023/10/02 14:38:14;;;;;;;18.58;7.85;;;;;;;;;;4986849;28;20047;-71
2023/10/02 14:40:41;;;;;;;17.58;6.95;;;;;;;;;;4998914;28;20490;-71
2023/10/02 14:43:11;;;;;;;17.10;7.45;;;;;;;;;;4989883;28;20501;-71
2023/10/02 14:45:39;;;;;;;17.70;7.28;;;;;;;;;;4976866;28;20060;-71
2023/10/02 14:48:08;;;;;;;16.15;7.55;;;;;;;;;;4991871;28;20056;-71
2023/10/02 14:50:37;;;;;;;22.13;8.60;;;;;;;;;;4992300;28;20051;-72
2023/10/02 14:53:08;;;;;;;17.70;7.95;;;;;;;;;;4979119;28;20126;-71
2023/10/02 14:55:38;;;;;;;18.13;8.15;;;;;;;;;;4989358;28;20489;-71
2023/10/02 14:58:06;;;;;;;19.23;8.88;;;;;;;;;;4969111;28;20050;-71
2023/10/02 15:00:34;;;;;;;18.48;8.52;;;;;;;;;;4968365;28;20065;-71
2023/10/02 15:03:02;;;;;;;20.58;8.15;;;;;;;;;;4968100;28;20046;-71
2023/10/02 15:05:31;;;;;;;19.27;8.60;;;;;;;;;;4983797;28;20112;-72
2023/10/02 15:08:00;;;;;;;16.02;8.52;;;;;;;;;;4988397;28;20629;-71
2023/10/02 15:10:32;;;;;;;19.33;8.00;;;;;;;;;;4968130;28;20104;-71
2023/10/02 15:12:59;;;;;;;21.17;8.55;;;;;;;;;;4981966;28;20390;-72